Terminal Aerodrome Forecast
Issued by NWS

Home | Current Version | Previous Version | Text Only | Print | Product List | Glossary On
Versions: 1 2 3 4 5 6 7 8 9 10 11 12
679
FTUS46 KMTR 251120
TAFSJC
TAF
KSJC 251120Z 2512/2612 15004KT P6SM SCT011
     FM251800 31012KT P6SM SKC
     FM260300 30008KT P6SM SKC
     FM261100 16003KT P6SM SKC=

USA.gov is the U.S. government's official web portal to all federal, state and local government web resources and services.